sensor_id;sensor_type;location;lat;lon;timestamp;temperature;humidity
73643;DHT22;61938;48.652;9.292;2024-01-06T00:00:30;6.00;99.90
73643;DHT22;61938;48.652;9.292;2024-01-06T00:02:55;6.00;99.90
73643;DHT22;61938;48.652;9.292;2024-01-06T00:05:21;6.00;99.90
73643;DHT22;61938;48.652;9.292;2024-01-06T00:07:46;5.90;99.90
73643;DHT22;61938;48.652;9.292;2024-01-06T00:10:12;5.90;99.90
73643;DHT22;61938;48.652;9.292;2024-01-06T00:12:37;5.90;99.90
73643;DHT22;61938;48.652;9.292;2024-01-06T00:15:03;5.90;99.90
73643;DHT22;61938;48.652;9.292;2024-01-06T00:17:29;5.90;99.90
73643;DHT22;61938;48.652;9.292;2024-01-06T00:19:55;5.80;99.90
73643;DHT22;61938;48.652;9.292;2024-01-06T00:22:20;5.90;99.90
73643;DHT22;61938;48.652;9.292;2024-01-06T00:24:46;5.90;99.90
73643;DHT22;61938;48.652;9.292;2024-01-06T00:27:12;5.90;99.90
73643;DHT22;61938;48.652;9.292;2024-01-06T00:29:38;5.90;99.90
73643;DHT22;61938;48.652;9.292;2024-01-06T00:32:04;5.80;99.90
73643;DHT22;61938;48.652;9.292;2024-01-06T00:34:30;5.80;99.90
73643;DHT22;61938;48.652;9.292;2024-01-06T00:36:55;5.80;99.90
73643;DHT22;61938;48.652;9.292;2024-01-06T00:39:21;5.80;99.90
73643;DHT22;61938;48.652;9.292;2024-01-06T00:41:46;5.80;99.90
73643;DHT22;61938;48.652;9.292;2024-01-06T00:44:12;5.80;99.90
73643;DHT22;61938;48.652;9.292;2024-01-06T00:46:39;5.80;99.90
73643;DHT22;61938;48.652;9.292;2024-01-06T00:49:04;5.80;99.90
73643;DHT22;61938;48.652;9.292;2024-01-06T00:51:30;5.80;99.90
73643;DHT22;61938;48.652;9.292;2024-01-06T00:53:55;5.70;99.90
73643;DHT22;61938;48.652;9.292;2024-01-06T00:56:22;5.60;99.90
73643;DHT22;61938;48.652;9.292;2024-01-06T00:58:47;5.60;99.90
73643;DHT22;61938;48.652;9.292;2024-01-06T01:01:13;5.60;99.90
73643;DHT22;61938;48.652;9.292;2024-01-06T01:03:38;5.60;99.90
73643;DHT22;61938;48.652;9.292;2024-01-06T01:06:04;5.60;99.90
73643;DHT22;61938;48.652;9.292;2024-01-06T01:08:29;5.60;99.90
73643;DHT22;61938;48.652;9.292;2024-01-06T01:10:56;5.50;99.90
73643;DHT22;61938;48.652;9.292;2024-01-06T01:13:22;5.60;99.90
73643;DHT22;61938;48.652;9.292;2024-01-06T01:15:48;5.50;99.90
73643;DHT22;61938;48.652;9.292;2024-01-06T01:18:13;5.50;99.90
73643;DHT22;61938;48.652;9.292;2024-01-06T01:20:39;5.50;99.90
73643;DHT22;61938;48.652;9.292;2024-01-06T01:23:07;5.50;99.90
73643;DHT22;61938;48.652;9.292;2024-01-06T01:25:33;5.40;99.90
73643;DHT22;61938;48.652;9.292;2024-01-06T01:27:58;5.40;99.90
73643;DHT22;61938;48.652;9.292;2024-01-06T01:30:24;5.40;99.90
73643;DHT22;61938;48.652;9.292;2024-01-06T01:32:49;5.30;99.90
73643;DHT22;61938;48.652;9.292;2024-01-06T01:35:15;5.30;99.90
73643;DHT22;61938;48.652;9.292;2024-01-06T01:37:40;5.30;99.90
73643;DHT22;61938;48.652;9.292;2024-01-06T01:40:06;5.30;99.90
73643;DHT22;61938;48.652;9.292;2024-01-06T01:42:33;5.30;99.90
73643;DHT22;61938;48.652;9.292;2024-01-06T01:44:59;5.30;99.90
73643;DHT22;61938;48.652;9.292;2024-01-06T01:47:24;5.30;99.90
73643;DHT22;61938;48.652;9.292;2024-01-06T01:49:52;5.30;99.90
73643;DHT22;61938;48.652;9.292;2024-01-06T01:52:19;5.30;99.90
73643;DHT22;61938;48.652;9.292;2024-01-06T01:54:45;5.30;99.90
73643;DHT22;61938;48.652;9.292;2024-01-06T01:57:12;5.30;99.90
73643;DHT22;61938;48.652;9.292;2024-01-06T01:59:39;5.30;99.90
73643;DHT22;61938;48.652;9.292;2024-01-06T02:02:05;5.20;99.90
73643;DHT22;61938;48.652;9.292;2024-01-06T02:04:31;5.20;99.90
73643;DHT22;61938;48.652;9.292;2024-01-06T02:06:57;5.20;99.90
73643;DHT22;61938;48.652;9.292;2024-01-06T02:09:22;5.20;99.90
73643;DHT22;61938;48.652;9.292;2024-01-06T02:11:52;5.20;99.90
73643;DHT22;61938;48.652;9.292;2024-01-06T02:14:17;5.20;99.90
73643;DHT22;61938;48.652;9.292;2024-01-06T02:16:43;5.20;99.90
73643;DHT22;61938;48.652;9.292;2024-01-06T02:19:10;5.20;99.90
73643;DHT22;61938;48.652;9.292;2024-01-06T02:21:41;5.30;99.90
73643;DHT22;61938;48.652;9.292;2024-01-06T02:24:07;5.20;99.90
73643;DHT22;61938;48.652;9.292;2024-01-06T02:26:32;5.10;99.90
73643;DHT22;61938;48.652;9.292;2024-01-06T02:28:58;5.10;99.90
73643;DHT22;61938;48.652;9.292;2024-01-06T02:31:23;5.10;99.90
73643;DHT22;61938;48.652;9.292;2024-01-06T02:33:49;5.10;99.90
73643;DHT22;61938;48.652;9.292;2024-01-06T02:36:14;5.20;99.90
73643;DHT22;61938;48.652;9.292;2024-01-06T02:38:40;5.10;99.90
73643;DHT22;61938;48.652;9.292;2024-01-06T02:41:05;5.10;99.90
73643;DHT22;61938;48.652;9.292;2024-01-06T02:43:31;5.00;99.90
73643;DHT22;61938;48.652;9.292;2024-01-06T02:45:56;5.00;99.90
73643;DHT22;61938;48.652;9.292;2024-01-06T02:48:22;4.90;99.90
73643;DHT22;61938;48.652;9.292;2024-01-06T02:50:47;5.00;99.90
73643;DHT22;61938;48.652;9.292;2024-01-06T02:53:13;5.00;99.90
73643;DHT22;61938;48.652;9.292;2024-01-06T02:55:39;5.00;99.90
73643;DHT22;61938;48.652;9.292;2024-01-06T02:58:04;5.00;99.90
73643;DHT22;61938;48.652;9.292;2024-01-06T03:00:30;4.90;99.90
73643;DHT22;61938;48.652;9.292;2024-01-06T03:02:55;4.90;99.90
73643;DHT22;61938;48.652;9.292;2024-01-06T03:05:21;4.90;99.90
73643;DHT22;61938;48.652;9.292;2024-01-06T03:07:46;4.90;99.90
73643;DHT22;61938;48.652;9.292;2024-01-06T03:10:12;4.90;99.90
73643;DHT22;61938;48.652;9.292;2024-01-06T03:12:37;5.00;99.90
73643;DHT22;61938;48.652;9.292;2024-01-06T03:15:03;4.90;99.90
73643;DHT22;61938;48.652;9.292;2024-01-06T03:17:29;4.90;99.90
73643;DHT22;61938;48.652;9.292;2024-01-06T03:19:54;4.90;99.90
73643;DHT22;61938;48.652;9.292;2024-01-06T03:22:20;4.80;99.90
73643;DHT22;61938;48.652;9.292;2024-01-06T03:24:45;4.90;99.90
73643;DHT22;61938;48.652;9.292;2024-01-06T03:27:11;4.90;99.90
73643;DHT22;61938;48.652;9.292;2024-01-06T03:29:38;4.90;99.90
73643;DHT22;61938;48.652;9.292;2024-01-06T03:32:03;4.90;99.90
73643;DHT22;61938;48.652;9.292;2024-01-06T03:34:29;4.90;99.90
73643;DHT22;61938;48.652;9.292;2024-01-06T03:36:54;4.90;99.90
73643;DHT22;61938;48.652;9.292;2024-01-06T03:39:20;4.90;99.90
73643;DHT22;61938;48.652;9.292;2024-01-06T03:41:47;4.90;99.90
73643;DHT22;61938;48.652;9.292;2024-01-06T03:44:13;4.90;99.90
73643;DHT22;61938;48.652;9.292;2024-01-06T03:46:39;4.90;99.90
73643;DHT22;61938;48.652;9.292;2024-01-06T03:49:04;4.90;99.90
73643;DHT22;61938;48.652;9.292;2024-01-06T03:51:30;4.90;99.90
73643;DHT22;61938;48.652;9.292;2024-01-06T03:53:56;4.90;99.90
73643;DHT22;61938;48.652;9.292;2024-01-06T03:56:21;4.90;99.90
73643;DHT22;61938;48.652;9.292;2024-01-06T03:58:47;4.90;99.90
73643;DHT22;61938;48.652;9.292;2024-01-06T04:01:12;4.90;99.90
73643;DHT22;61938;48.652;9.292;2024-01-06T04:03:38;4.90;99.90
73643;DHT22;61938;48.652;9.292;2024-01-06T04:06:06;4.80;99.90
73643;DHT22;61938;48.652;9.292;2024-01-06T04:08:31;4.80;99.90
73643;DHT22;61938;48.652;9.292;2024-01-06T04:10:57;4.70;99.90
73643;DHT22;61938;48.652;9.292;2024-01-06T04:13:22;4.70;99.90
73643;DHT22;61938;48.652;9.292;2024-01-06T04:15:50;4.70;99.90
73643;DHT22;61938;48.652;9.292;2024-01-06T04:18:16;4.80;99.90
73643;DHT22;61938;48.652;9.292;2024-01-06T04:20:41;4.70;99.90
73643;DHT22;61938;48.652;9.292;2024-01-06T04:23:07;4.60;99.90
73643;DHT22;61938;48.652;9.292;2024-01-06T04:25:32;4.60;99.90
73643;DHT22;61938;48.652;9.292;2024-01-06T04:27:58;4.60;99.90
73643;DHT22;61938;48.652;9.292;2024-01-06T04:30:23;4.60;99.90
73643;DHT22;61938;48.652;9.292;2024-01-06T04:32:50;4.60;99.90
73643;DHT22;61938;48.652;9.292;2024-01-06T04:35:16;4.60;99.90
73643;DHT22;61938;48.652;9.292;2024-01-06T04:37:41;4.60;99.90
73643;DHT22;61938;48.652;9.292;2024-01-06T04:40:07;4.60;99.90
73643;DHT22;61938;48.652;9.292;2024-01-06T04:42:33;4.60;99.90
73643;DHT22;61938;48.652;9.292;2024-01-06T04:44:59;4.50;99.90
73643;DHT22;61938;48.652;9.292;2024-01-06T04:47:24;4.50;99.90
73643;DHT22;61938;48.652;9.292;2024-01-06T04:49:50;4.50;99.90
73643;DHT22;61938;48.652;9.292;2024-01-06T04:52:16;4.60;99.90
73643;DHT22;61938;48.652;9.292;2024-01-06T04:54:41;4.50;99.90
73643;DHT22;61938;48.652;9.292;2024-01-06T04:57:07;4.60;99.90
73643;DHT22;61938;48.652;9.292;2024-01-06T04:59:32;4.50;99.90
73643;DHT22;61938;48.652;9.292;2024-01-06T05:01:58;4.50;99.90
73643;DHT22;61938;48.652;9.292;2024-01-06T05:04:24;4.50;99.90
73643;DHT22;61938;48.652;9.292;2024-01-06T05:06:51;4.50;99.90
73643;DHT22;61938;48.652;9.292;2024-01-06T05:09:17;4.40;99.90
73643;DHT22;61938;48.652;9.292;2024-01-06T05:11:45;4.50;99.90
73643;DHT22;61938;48.652;9.292;2024-01-06T05:14:11;4.40;99.90
73643;DHT22;61938;48.652;9.292;2024-01-06T05:16:37;4.40;99.90
73643;DHT22;61938;48.652;9.292;2024-01-06T05:19:02;4.50;99.90
73643;DHT22;61938;48.652;9.292;2024-01-06T05:21:29;4.50;99.90
73643;DHT22;61938;48.652;9.292;2024-01-06T05:23:54;4.50;99.90
73643;DHT22;61938;48.652;9.292;2024-01-06T05:26:20;4.40;99.90
73643;DHT22;61938;48.652;9.292;2024-01-06T05:28:45;4.40;99.90
73643;DHT22;61938;48.652;9.292;2024-01-06T05:31:11;4.60;99.90
73643;DHT22;61938;48.652;9.292;2024-01-06T05:33:36;4.50;99.90
73643;DHT22;61938;48.652;9.292;2024-01-06T05:36:02;4.50;99.90
73643;DHT22;61938;48.652;9.292;2024-01-06T05:38:28;4.50;99.90
73643;DHT22;61938;48.652;9.292;2024-01-06T05:40:53;4.60;99.90
73643;DHT22;61938;48.652;9.292;2024-01-06T05:43:19;4.70;99.90
73643;DHT22;61938;48.652;9.292;2024-01-06T05:45:44;4.40;99.90
73643;DHT22;61938;48.652;9.292;2024-01-06T05:48:11;4.40;99.90
73643;DHT22;61938;48.652;9.292;2024-01-06T05:50:39;4.40;99.90
73643;DHT22;61938;48.652;9.292;2024-01-06T05:53:05;4.40;99.90
73643;DHT22;61938;48.652;9.292;2024-01-06T05:55:31;4.30;99.90
73643;DHT22;61938;48.652;9.292;2024-01-06T05:57:56;4.40;99.90
73643;DHT22;61938;48.652;9.292;2024-01-06T06:00:22;4.30;99.90
73643;DHT22;61938;48.652;9.292;2024-01-06T06:02:47;4.30;99.90
73643;DHT22;61938;48.652;9.292;2024-01-06T06:05:13;4.30;99.90
73643;DHT22;61938;48.652;9.292;2024-01-06T06:07:39;4.30;99.90
73643;DHT22;61938;48.652;9.292;2024-01-06T06:10:09;4.30;99.90
73643;DHT22;61938;48.652;9.292;2024-01-06T06:12:35;4.30;99.90
73643;DHT22;61938;48.652;9.292;2024-01-06T06:15:02;4.30;99.90
73643;DHT22;61938;48.652;9.292;2024-01-06T06:17:29;4.30;99.90
73643;DHT22;61938;48.652;9.292;2024-01-06T06:19:56;4.30;99.90
73643;DHT22;61938;48.652;9.292;2024-01-06T06:22:22;4.30;99.90
73643;DHT22;61938;48.652;9.292;2024-01-06T06:24:48;4.30;99.90
73643;DHT22;61938;48.652;9.292;2024-01-06T06:27:13;4.40;99.90
73643;DHT22;61938;48.652;9.292;2024-01-06T06:29:39;4.40;99.90
73643;DHT22;61938;48.652;9.292;2024-01-06T06:32:05;4.40;99.90
73643;DHT22;61938;48.652;9.292;2024-01-06T06:34:30;4.40;99.90
73643;DHT22;61938;48.652;9.292;2024-01-06T06:36:56;4.30;99.90
73643;DHT22;61938;48.652;9.292;2024-01-06T06:39:21;4.30;99.90
73643;DHT22;61938;48.652;9.292;2024-01-06T06:41:46;4.30;99.90
73643;DHT22;61938;48.652;9.292;2024-01-06T06:44:12;4.30;99.90
73643;DHT22;61938;48.652;9.292;2024-01-06T06:46:38;4.30;99.90
73643;DHT22;61938;48.652;9.292;2024-01-06T06:49:03;4.40;99.90
73643;DHT22;61938;48.652;9.292;2024-01-06T06:51:28;4.40;99.90
73643;DHT22;61938;48.652;9.292;2024-01-06T06:53:55;4.30;99.90
73643;DHT22;61938;48.652;9.292;2024-01-06T06:56:22;4.30;99.90
73643;DHT22;61938;48.652;9.292;2024-01-06T06:58:48;4.40;99.90
73643;DHT22;61938;48.652;9.292;2024-01-06T07:01:16;4.30;99.90
73643;DHT22;61938;48.652;9.292;2024-01-06T07:03:42;4.30;99.90
73643;DHT22;61938;48.652;9.292;2024-01-06T07:06:07;4.30;99.90
73643;DHT22;61938;48.652;9.292;2024-01-06T07:08:33;4.50;99.90
73643;DHT22;61938;48.652;9.292;2024-01-06T07:10:58;4.30;99.90
73643;DHT22;61938;48.652;9.292;2024-01-06T07:13:24;4.50;99.90
73643;DHT22;61938;48.652;9.292;2024-01-06T07:15:49;4.30;99.90
73643;DHT22;61938;48.652;9.292;2024-01-06T07:18:15;4.30;99.90
73643;DHT22;61938;48.652;9.292;2024-01-06T07:20:41;4.30;99.90
73643;DHT22;61938;48.652;9.292;2024-01-06T07:23:06;4.30;99.90
73643;DHT22;61938;48.652;9.292;2024-01-06T07:25:32;4.30;99.90
73643;DHT22;61938;48.652;9.292;2024-01-06T07:27:57;4.30;99.90
73643;DHT22;61938;48.652;9.292;2024-01-06T07:30:23;4.30;99.90
73643;DHT22;61938;48.652;9.292;2024-01-06T07:32:48;4.30;99.90
73643;DHT22;61938;48.652;9.292;2024-01-06T07:35:16;4.30;99.90
73643;DHT22;61938;48.652;9.292;2024-01-06T07:37:42;4.30;99.90
73643;DHT22;61938;48.652;9.292;2024-01-06T07:40:07;4.30;99.90
73643;DHT22;61938;48.652;9.292;2024-01-06T07:42:33;4.30;99.90
73643;DHT22;61938;48.652;9.292;2024-01-06T07:44:59;4.30;99.90
73643;DHT22;61938;48.652;9.292;2024-01-06T07:47:24;4.30;99.90
73643;DHT22;61938;48.652;9.292;2024-01-06T07:49:50;4.30;99.90
73643;DHT22;61938;48.652;9.292;2024-01-06T07:52:16;4.30;99.90
73643;DHT22;61938;48.652;9.292;2024-01-06T07:54:42;4.40;99.90
73643;DHT22;61938;48.652;9.292;2024-01-06T07:57:07;4.30;99.90
73643;DHT22;61938;48.652;9.292;2024-01-06T07:59:33;4.30;99.90
73643;DHT22;61938;48.652;9.292;2024-01-06T08:01:58;4.40;99.90
73643;DHT22;61938;48.652;9.292;2024-01-06T08:04:24;4.30;99.90
73643;DHT22;61938;48.652;9.292;2024-01-06T08:06:49;4.30;99.90
73643;DHT22;61938;48.652;9.292;2024-01-06T08:09:15;4.50;99.90
73643;DHT22;61938;48.652;9.292;2024-01-06T08:11:40;4.40;99.90
73643;DHT22;61938;48.652;9.292;2024-01-06T08:14:08;4.30;99.90
73643;DHT22;61938;48.652;9.292;2024-01-06T08:16:33;4.30;99.90
73643;DHT22;61938;48.652;9.292;2024-01-06T08:18:59;4.40;99.90
73643;DHT22;61938;48.652;9.292;2024-01-06T08:21:25;4.30;99.90
73643;DHT22;61938;48.652;9.292;2024-01-06T08:23:50;4.40;99.90
73643;DHT22;61938;48.652;9.292;2024-01-06T08:26:16;4.40;99.90
73643;DHT22;61938;48.652;9.292;2024-01-06T08:28:41;4.40;99.90
73643;DHT22;61938;48.652;9.292;2024-01-06T08:31:07;4.70;99.90
73643;DHT22;61938;48.652;9.292;2024-01-06T08:33:32;4.50;99.90
73643;DHT22;61938;48.652;9.292;2024-01-06T08:35:58;4.50;99.90
73643;DHT22;61938;48.652;9.292;2024-01-06T08:38:23;4.50;99.90
73643;DHT22;61938;48.652;9.292;2024-01-06T08:40:49;4.70;99.90
73643;DHT22;61938;48.652;9.292;2024-01-06T08:43:15;4.40;99.90
73643;DHT22;61938;48.652;9.292;2024-01-06T08:45:41;4.50;99.90
73643;DHT22;61938;48.652;9.292;2024-01-06T08:48:07;4.70;99.90
73643;DHT22;61938;48.652;9.292;2024-01-06T08:50:32;4.60;99.90
73643;DHT22;61938;48.652;9.292;2024-01-06T08:52:58;4.60;99.90
73643;DHT22;61938;48.652;9.292;2024-01-06T08:55:24;4.50;99.90
73643;DHT22;61938;48.652;9.292;2024-01-06T08:57:49;4.60;99.90
73643;DHT22;61938;48.652;9.292;2024-01-06T09:00:15;4.60;99.90
73643;DHT22;61938;48.652;9.292;2024-01-06T09:02:41;4.70;99.90
73643;DHT22;61938;48.652;9.292;2024-01-06T09:05:07;4.70;99.90
73643;DHT22;61938;48.652;9.292;2024-01-06T09:07:32;4.50;99.90
73643;DHT22;61938;48.652;9.292;2024-01-06T09:09:58;4.70;99.90
73643;DHT22;61938;48.652;9.292;2024-01-06T09:12:23;4.70;99.90
73643;DHT22;61938;48.652;9.292;2024-01-06T09:14:49;4.70;99.90
73643;DHT22;61938;48.652;9.292;2024-01-06T09:17:14;4.70;99.90
73643;DHT22;61938;48.652;9.292;2024-01-06T09:19:40;4.70;99.90
73643;DHT22;61938;48.652;9.292;2024-01-06T09:22:06;4.70;99.90
73643;DHT22;61938;48.652;9.292;2024-01-06T09:24:31;4.70;99.90
73643;DHT22;61938;48.652;9.292;2024-01-06T09:26:58;4.80;99.90
73643;DHT22;61938;48.652;9.292;2024-01-06T09:29:24;4.70;99.90
73643;DHT22;61938;48.652;9.292;2024-01-06T09:31:49;4.80;99.90
73643;DHT22;61938;48.652;9.292;2024-01-06T09:34:15;4.90;99.90
73643;DHT22;61938;48.652;9.292;2024-01-06T09:36:40;4.80;99.90
73643;DHT22;61938;48.652;9.292;2024-01-06T09:39:06;4.80;99.90
73643;DHT22;61938;48.652;9.292;2024-01-06T09:41:33;4.80;99.90
73643;DHT22;61938;48.652;9.292;2024-01-06T09:43:59;4.80;99.90
73643;DHT22;61938;48.652;9.292;2024-01-06T09:46:25;4.80;99.90
73643;DHT22;61938;48.652;9.292;2024-01-06T09:48:55;4.80;99.90
73643;DHT22;61938;48.652;9.292;2024-01-06T09:51:22;4.90;99.90
73643;DHT22;61938;48.652;9.292;2024-01-06T09:53:49;4.90;99.90
73643;DHT22;61938;48.652;9.292;2024-01-06T09:56:18;4.90;99.90
73643;DHT22;61938;48.652;9.292;2024-01-06T09:58:44;4.90;99.90
73643;DHT22;61938;48.652;9.292;2024-01-06T10:01:11;4.90;99.90
73643;DHT22;61938;48.652;9.292;2024-01-06T10:03:37;4.90;99.90
73643;DHT22;61938;48.652;9.292;2024-01-06T10:06:03;4.90;99.90
73643;DHT22;61938;48.652;9.292;2024-01-06T10:08:30;4.90;99.90
73643;DHT22;61938;48.652;9.292;2024-01-06T10:10:58;4.90;99.90
73643;DHT22;61938;48.652;9.292;2024-01-06T10:13:23;5.00;99.90
73643;DHT22;61938;48.652;9.292;2024-01-06T10:15:50;5.00;99.90
73643;DHT22;61938;48.652;9.292;2024-01-06T10:18:16;5.00;99.90
73643;DHT22;61938;48.652;9.292;2024-01-06T10:20:43;5.00;99.90
73643;DHT22;61938;48.652;9.292;2024-01-06T10:23:09;5.00;99.90
73643;DHT22;61938;48.652;9.292;2024-01-06T10:25:35;5.00;99.90
73643;DHT22;61938;48.652;9.292;2024-01-06T10:28:01;5.10;99.90
73643;DHT22;61938;48.652;9.292;2024-01-06T10:30:29;5.10;99.90
73643;DHT22;61938;48.652;9.292;2024-01-06T10:32:55;5.10;99.90
73643;DHT22;61938;48.652;9.292;2024-01-06T10:35:20;5.10;99.90
73643;DHT22;61938;48.652;9.292;2024-01-06T10:37:47;5.10;99.90
73643;DHT22;61938;48.652;9.292;2024-01-06T10:40:17;5.10;99.90
73643;DHT22;61938;48.652;9.292;2024-01-06T10:42:43;5.20;99.90
73643;DHT22;61938;48.652;9.292;2024-01-06T10:45:13;5.20;99.90
73643;DHT22;61938;48.652;9.292;2024-01-06T10:47:41;5.20;99.90
73643;DHT22;61938;48.652;9.292;2024-01-06T10:50:08;5.20;99.90
73643;DHT22;61938;48.652;9.292;2024-01-06T10:52:34;5.20;99.90
73643;DHT22;61938;48.652;9.292;2024-01-06T10:55:04;5.20;99.90
73643;DHT22;61938;48.652;9.292;2024-01-06T10:57:31;5.30;99.90
73643;DHT22;61938;48.652;9.292;2024-01-06T11:00:00;5.30;99.90
73643;DHT22;61938;48.652;9.292;2024-01-06T11:02:26;5.30;99.90
73643;DHT22;61938;48.652;9.292;2024-01-06T11:04:52;5.30;99.90
73643;DHT22;61938;48.652;9.292;2024-01-06T11:07:20;5.30;99.90
73643;DHT22;61938;48.652;9.292;2024-01-06T11:10:05;5.30;99.90
73643;DHT22;61938;48.652;9.292;2024-01-06T11:12:32;5.30;99.90
73643;DHT22;61938;48.652;9.292;2024-01-06T11:14:58;5.40;99.90
73643;DHT22;61938;48.652;9.292;2024-01-06T11:17:52;5.40;99.90
73643;DHT22;61938;48.652;9.292;2024-01-06T11:20:26;5.40;99.90
73643;DHT22;61938;48.652;9.292;2024-01-06T11:22:52;5.40;99.90
73643;DHT22;61938;48.652;9.292;2024-01-06T11:25:20;5.40;99.90
73643;DHT22;61938;48.652;9.292;2024-01-06T11:27:47;5.40;99.90
73643;DHT22;61938;48.652;9.292;2024-01-06T11:30:24;5.40;99.90
73643;DHT22;61938;48.652;9.292;2024-01-06T11:32:51;5.40;99.90
73643;DHT22;61938;48.652;9.292;2024-01-06T11:35:19;5.40;99.90
73643;DHT22;61938;48.652;9.292;2024-01-06T11:43:09;5.50;99.90
73643;DHT22;61938;48.652;9.292;2024-01-06T11:45:36;5.50;99.90
73643;DHT22;61938;48.652;9.292;2024-01-06T11:48:06;5.50;99.90
73643;DHT22;61938;48.652;9.292;2024-01-06T11:50:34;5.50;99.90
73643;DHT22;61938;48.652;9.292;2024-01-06T11:53:01;5.50;99.90
73643;DHT22;61938;48.652;9.292;2024-01-06T11:55:26;5.50;99.90
73643;DHT22;61938;48.652;9.292;2024-01-06T11:57:57;5.50;99.90
73643;DHT22;61938;48.652;9.292;2024-01-06T12:00:27;5.50;99.90
73643;DHT22;61938;48.652;9.292;2024-01-06T12:03:00;5.50;99.90
73643;DHT22;61938;48.652;9.292;2024-01-06T12:05:26;5.50;99.90
73643;DHT22;61938;48.652;9.292;2024-01-06T12:07:57;5.50;99.90
73643;DHT22;61938;48.652;9.292;2024-01-06T12:10:24;5.50;99.90
73643;DHT22;61938;48.652;9.292;2024-01-06T12:13:00;5.50;99.90
73643;DHT22;61938;48.652;9.292;2024-01-06T12:15:27;5.60;99.90
73643;DHT22;61938;48.652;9.292;2024-01-06T12:17:53;5.50;99.90
73643;DHT22;61938;48.652;9.292;2024-01-06T12:20:19;5.60;99.90
73643;DHT22;61938;48.652;9.292;2024-01-06T12:22:46;5.60;99.90
73643;DHT22;61938;48.652;9.292;2024-01-06T12:25:11;5.60;99.90
73643;DHT22;61938;48.652;9.292;2024-01-06T12:27:44;5.60;99.90
73643;DHT22;61938;48.652;9.292;2024-01-06T12:30:14;5.60;99.90
73643;DHT22;61938;48.652;9.292;2024-01-06T12:32:43;5.60;99.90
73643;DHT22;61938;48.652;9.292;2024-01-06T12:35:09;5.60;99.90
73643;DHT22;61938;48.652;9.292;2024-01-06T12:37:36;5.60;99.90
73643;DHT22;61938;48.652;9.292;2024-01-06T12:40:01;5.70;99.90
73643;DHT22;61938;48.652;9.292;2024-01-06T12:42:27;5.70;99.90
73643;DHT22;61938;48.652;9.292;2024-01-06T12:44:52;5.70;99.90
73643;DHT22;61938;48.652;9.292;2024-01-06T12:47:18;5.70;99.90
73643;DHT22;61938;48.652;9.292;2024-01-06T12:49:44;5.70;99.90
73643;DHT22;61938;48.652;9.292;2024-01-06T12:52:09;5.70;99.90
73643;DHT22;61938;48.652;9.292;2024-01-06T12:54:35;5.70;99.90
73643;DHT22;61938;48.652;9.292;2024-01-06T12:57:00;5.70;99.90
73643;DHT22;61938;48.652;9.292;2024-01-06T12:59:26;5.70;99.90
73643;DHT22;61938;48.652;9.292;2024-01-06T13:01:51;5.70;99.90
73643;DHT22;61938;48.652;9.292;2024-01-06T13:04:17;5.70;99.90
73643;DHT22;61938;48.652;9.292;2024-01-06T13:06:42;5.70;99.90
73643;DHT22;61938;48.652;9.292;2024-01-06T13:09:08;5.70;99.90
73643;DHT22;61938;48.652;9.292;2024-01-06T13:11:37;5.70;99.90
73643;DHT22;61938;48.652;9.292;2024-01-06T13:14:02;5.70;99.90
73643;DHT22;61938;48.652;9.292;2024-01-06T13:16:28;5.70;99.90
73643;DHT22;61938;48.652;9.292;2024-01-06T13:18:54;5.70;99.90
73643;DHT22;61938;48.652;9.292;2024-01-06T13:21:20;5.70;99.90
73643;DHT22;61938;48.652;9.292;2024-01-06T13:23:45;5.70;99.90
73643;DHT22;61938;48.652;9.292;2024-01-06T13:26:11;5.70;99.90
73643;DHT22;61938;48.652;9.292;2024-01-06T13:28:37;5.80;99.90
73643;DHT22;61938;48.652;9.292;2024-01-06T13:31:02;5.80;99.90
73643;DHT22;61938;48.652;9.292;2024-01-06T13:33:28;5.80;99.90
73643;DHT22;61938;48.652;9.292;2024-01-06T13:35:54;5.80;99.90
73643;DHT22;61938;48.652;9.292;2024-01-06T13:38:20;5.80;99.90
73643;DHT22;61938;48.652;9.292;2024-01-06T13:40:47;5.80;99.90
73643;DHT22;61938;48.652;9.292;2024-01-06T13:43:13;5.80;99.90
73643;DHT22;61938;48.652;9.292;2024-01-06T13:45:44;5.80;99.90
73643;DHT22;61938;48.652;9.292;2024-01-06T13:48:15;7.10;99.90
73643;DHT22;61938;48.652;9.292;2024-01-06T13:50:41;5.80;99.90
73643;DHT22;61938;48.652;9.292;2024-01-06T13:53:07;6.70;99.90
73643;DHT22;61938;48.652;9.292;2024-01-06T13:55:33;5.80;99.90
73643;DHT22;61938;48.652;9.292;2024-01-06T13:57:59;5.70;99.90
73643;DHT22;61938;48.652;9.292;2024-01-06T14:00:24;5.70;99.90
73643;DHT22;61938;48.652;9.292;2024-01-06T14:02:51;5.70;99.90
73643;DHT22;61938;48.652;9.292;2024-01-06T14:05:17;5.80;99.90
73643;DHT22;61938;48.652;9.292;2024-01-06T14:07:44;5.80;99.90
73643;DHT22;61938;48.652;9.292;2024-01-06T14:10:11;5.80;99.90
73643;DHT22;61938;48.652;9.292;2024-01-06T14:12:37;5.80;99.90
73643;DHT22;61938;48.652;9.292;2024-01-06T14:15:03;5.80;99.90
73643;DHT22;61938;48.652;9.292;2024-01-06T14:17:29;5.80;99.90
73643;DHT22;61938;48.652;9.292;2024-01-06T14:19:55;5.80;99.90
73643;DHT22;61938;48.652;9.292;2024-01-06T14:22:20;5.80;99.90
73643;DHT22;61938;48.652;9.292;2024-01-06T14:24:46;5.80;99.90
73643;DHT22;61938;48.652;9.292;2024-01-06T14:27:12;5.70;99.90
73643;DHT22;61938;48.652;9.292;2024-01-06T14:29:38;5.80;99.90
73643;DHT22;61938;48.652;9.292;2024-01-06T14:32:05;5.80;99.90
73643;DHT22;61938;48.652;9.292;2024-01-06T14:34:30;5.80;99.90
73643;DHT22;61938;48.652;9.292;2024-01-06T14:36:56;5.70;99.90
73643;DHT22;61938;48.652;9.292;2024-01-06T14:39:21;5.70;99.90
73643;DHT22;61938;48.652;9.292;2024-01-06T14:41:48;5.70;99.90
73643;DHT22;61938;48.652;9.292;2024-01-06T14:44:13;5.80;99.90
73643;DHT22;61938;48.652;9.292;2024-01-06T14:46:39;5.70;99.90
73643;DHT22;61938;48.652;9.292;2024-01-06T14:49:07;5.70;99.90
73643;DHT22;61938;48.652;9.292;2024-01-06T14:51:32;5.70;99.90
73643;DHT22;61938;48.652;9.292;2024-01-06T14:53:58;5.70;99.90
73643;DHT22;61938;48.652;9.292;2024-01-06T14:56:24;5.70;99.90
73643;DHT22;61938;48.652;9.292;2024-01-06T14:58:50;5.70;99.90
73643;DHT22;61938;48.652;9.292;2024-01-06T15:01:16;5.70;99.90
73643;DHT22;61938;48.652;9.292;2024-01-06T15:03:41;5.70;99.90
73643;DHT22;61938;48.652;9.292;2024-01-06T15:06:07;5.60;99.90
73643;DHT22;61938;48.652;9.292;2024-01-06T15:08:33;5.60;99.90
73643;DHT22;61938;48.652;9.292;2024-01-06T15:10:58;5.60;99.90
73643;DHT22;61938;48.652;9.292;2024-01-06T15:13:24;5.60;99.90
73643;DHT22;61938;48.652;9.292;2024-01-06T15:15:49;5.60;99.90
73643;DHT22;61938;48.652;9.292;2024-01-06T15:18:18;5.60;99.90
73643;DHT22;61938;48.652;9.292;2024-01-06T15:20:47;5.60;99.90
73643;DHT22;61938;48.652;9.292;2024-01-06T15:23:13;5.60;99.90
73643;DHT22;61938;48.652;9.292;2024-01-06T15:25:38;5.60;99.90
73643;DHT22;61938;48.652;9.292;2024-01-06T15:28:04;5.50;99.90
73643;DHT22;61938;48.652;9.292;2024-01-06T15:30:29;5.50;99.90
73643;DHT22;61938;48.652;9.292;2024-01-06T15:32:55;5.50;99.90
73643;DHT22;61938;48.652;9.292;2024-01-06T15:35:20;5.50;99.90
73643;DHT22;61938;48.652;9.292;2024-01-06T15:37:46;5.50;99.90
73643;DHT22;61938;48.652;9.292;2024-01-06T15:40:12;5.50;99.90
73643;DHT22;61938;48.652;9.292;2024-01-06T15:42:38;5.50;99.90